createdAt,value
2017-07-19T00:01:52.816Z,5.90
2017-07-19T00:04:22.275Z,5.60
2017-07-19T00:06:51.715Z,9.00
2017-07-19T00:09:21.164Z,5.53
2017-07-19T00:11:50.606Z,6.47
2017-07-19T00:14:20.058Z,5.23
2017-07-19T00:16:49.508Z,4.90
2017-07-19T00:19:18.959Z,5.73
2017-07-19T00:21:48.394Z,5.27
2017-07-19T00:24:17.846Z,5.10
2017-07-19T00:26:47.284Z,5.40
2017-07-19T00:29:16.738Z,5.67
2017-07-19T00:31:46.178Z,5.83
2017-07-19T00:34:15.685Z,4.87
2017-07-19T00:36:45.125Z,4.90
2017-07-19T00:39:14.614Z,5.73
2017-07-19T00:41:44.054Z,6.80
2017-07-19T00:44:13.498Z,5.57
2017-07-19T00:46:42.932Z,6.30
2017-07-19T00:49:12.377Z,6.30
2017-07-19T00:51:41.878Z,6.83
2017-07-19T00:54:11.330Z,6.43
2017-07-19T00:56:40.773Z,5.30
2017-07-19T00:59:10.228Z,6.50
2017-07-19T01:01:39.680Z,6.67
2017-07-19T01:04:09.100Z,6.20
2017-07-19T01:06:38.550Z,6.70
2017-07-19T01:09:08.092Z,7.13
2017-07-19T01:11:37.536Z,6.53
2017-07-19T01:14:06.987Z,5.30
2017-07-19T01:16:36.431Z,6.03
2017-07-19T01:19:05.866Z,6.60
2017-07-19T01:21:35.333Z,7.00
2017-07-19T01:24:04.780Z,6.60
2017-07-19T01:26:34.205Z,7.37
2017-07-19T01:29:03.652Z,5.93
2017-07-19T01:31:33.146Z,6.37
2017-07-19T01:34:02.646Z,7.40
2017-07-19T01:36:32.097Z,6.67
2017-07-19T01:39:01.590Z,6.80
2017-07-19T01:41:30.856Z,6.77
2017-07-19T01:44:00.285Z,7.43
2017-07-19T01:46:29.731Z,6.53
2017-07-19T01:48:59.165Z,6.60
2017-07-19T01:51:28.620Z,6.73
2017-07-19T01:53:58.071Z,6.37
2017-07-19T01:56:27.167Z,6.53
2017-07-19T01:58:56.637Z,7.70
2017-07-19T02:01:26.088Z,8.90
2017-07-19T02:03:55.584Z,7.20
2017-07-19T02:06:25.027Z,7.23
2017-07-19T02:08:54.492Z,6.93
2017-07-19T02:11:23.942Z,7.50
2017-07-19T02:13:53.391Z,6.33
2017-07-19T02:16:22.820Z,6.80
2017-07-19T02:18:52.261Z,7.00
2017-07-19T02:21:21.733Z,6.87
2017-07-19T02:23:51.145Z,6.30
2017-07-19T02:26:20.597Z,7.30
2017-07-19T02:28:50.073Z,7.67
2017-07-19T02:31:19.516Z,7.07
2017-07-19T02:33:48.965Z,7.50
2017-07-19T02:36:18.418Z,8.40
2017-07-19T02:38:47.888Z,7.40
2017-07-19T02:41:17.311Z,7.00
2017-07-19T02:43:46.758Z,6.80
2017-07-19T02:46:17.153Z,7.17
2017-07-19T02:48:46.588Z,7.23
2017-07-19T02:51:16.038Z,7.57
2017-07-19T02:53:45.472Z,7.93
2017-07-19T02:56:14.929Z,8.00
2017-07-19T02:58:44.378Z,7.63
2017-07-19T03:01:13.821Z,7.93
2017-07-19T03:03:43.313Z,8.30
2017-07-19T03:06:12.761Z,8.10
2017-07-19T03:08:42.212Z,8.33
2017-07-19T03:11:11.692Z,8.70
2017-07-19T03:13:41.124Z,8.27
2017-07-19T03:16:10.574Z,9.00
2017-07-19T03:18:40.016Z,8.30
2017-07-19T03:21:09.472Z,9.83
2017-07-19T03:23:38.754Z,8.90
2017-07-19T03:26:08.201Z,8.70
2017-07-19T03:28:37.646Z,8.87
2017-07-19T03:31:07.148Z,8.40
2017-07-19T03:33:36.594Z,7.80
2017-07-19T03:36:06.039Z,7.70
2017-07-19T03:38:35.492Z,8.10
2017-07-19T03:41:04.943Z,8.93
2017-07-19T03:43:34.405Z,8.30
2017-07-19T03:46:03.852Z,7.83
2017-07-19T03:48:33.315Z,9.00
2017-07-19T03:51:02.784Z,8.73
2017-07-19T03:53:32.238Z,8.37
2017-07-19T03:56:01.712Z,8.27
2017-07-19T03:58:31.185Z,7.90
2017-07-19T04:01:01.337Z,8.53
2017-07-19T04:03:30.782Z,8.40
2017-07-19T04:06:00.217Z,8.33
2017-07-19T04:08:29.704Z,8.20
2017-07-19T04:10:59.149Z,8.87
2017-07-19T04:13:28.603Z,8.27
2017-07-19T04:15:58.062Z,8.57
2017-07-19T04:18:27.512Z,8.63
2017-07-19T04:20:56.977Z,8.40
2017-07-19T04:23:26.534Z,9.10
2017-07-19T04:25:56.038Z,9.73
2017-07-19T04:28:25.467Z,8.20
2017-07-19T04:30:54.922Z,8.70
2017-07-19T04:33:24.361Z,8.13
2017-07-19T04:35:53.808Z,8.20
2017-07-19T04:38:23.264Z,9.83
2017-07-19T04:40:52.700Z,8.83
2017-07-19T04:43:22.144Z,9.80
2017-07-19T04:45:51.606Z,9.40
2017-07-19T04:48:21.084Z,8.40
2017-07-19T04:50:50.501Z,8.63
2017-07-19T04:53:21.980Z,8.03
2017-07-19T04:55:55.062Z,7.87
2017-07-19T04:58:26.006Z,8.20
2017-07-19T05:00:58.497Z,8.10
2017-07-19T05:03:29.840Z,8.60
2017-07-19T05:05:59.346Z,8.60
2017-07-19T05:08:29.502Z,7.53
2017-07-19T05:11:00.498Z,8.00
2017-07-19T05:13:31.477Z,8.50
2017-07-19T05:16:01.204Z,9.27
2017-07-19T05:18:30.654Z,7.60
2017-07-19T05:21:00.129Z,8.67
2017-07-19T05:23:29.413Z,9.50
2017-07-19T05:25:58.873Z,9.13
2017-07-19T05:28:28.325Z,9.37
2017-07-19T05:30:57.828Z,9.87
2017-07-19T05:33:27.284Z,9.47
2017-07-19T05:35:56.744Z,9.73
2017-07-19T05:38:26.196Z,8.90
2017-07-19T05:40:55.745Z,9.50
2017-07-19T05:43:25.187Z,10.53
2017-07-19T05:45:54.636Z,9.07
2017-07-19T05:48:24.092Z,9.80
2017-07-19T05:50:53.582Z,9.80
2017-07-19T05:53:23.033Z,11.00
2017-07-19T05:55:52.485Z,11.83
2017-07-19T05:58:22.024Z,10.60
2017-07-19T06:00:51.468Z,10.57
2017-07-19T06:03:20.923Z,11.67
2017-07-19T06:05:50.383Z,10.00
2017-07-19T06:08:19.849Z,9.80
2017-07-19T06:10:49.301Z,10.30
2017-07-19T06:13:18.757Z,10.40
2017-07-19T06:15:48.213Z,9.50
2017-07-19T06:18:17.651Z,9.10
2017-07-19T06:20:47.124Z,8.93
2017-07-19T06:23:16.585Z,10.17
2017-07-19T06:25:46.038Z,10.13
2017-07-19T06:28:15.510Z,9.70
2017-07-19T06:30:45.006Z,10.30
2017-07-19T06:33:14.437Z,9.80
2017-07-19T06:35:43.902Z,8.87
2017-07-19T06:38:13.352Z,10.00
2017-07-19T06:40:44.664Z,8.30
2017-07-19T06:43:13.961Z,8.80
2017-07-19T06:45:43.437Z,8.30
2017-07-19T06:48:12.886Z,8.60
2017-07-19T06:50:42.365Z,9.40
2017-07-19T06:53:11.631Z,8.13
2017-07-19T06:55:41.113Z,7.80
2017-07-19T06:58:10.558Z,7.80
2017-07-19T07:00:40.017Z,7.50
2017-07-19T07:03:09.453Z,7.20
2017-07-19T07:05:38.901Z,7.43
2017-07-19T07:08:08.350Z,9.40
2017-07-19T07:10:37.807Z,11.77
2017-07-19T07:13:07.261Z,12.27
2017-07-19T07:15:36.773Z,11.97
2017-07-19T07:18:06.242Z,12.23
2017-07-19T07:20:35.769Z,12.50
2017-07-19T07:23:05.263Z,11.27
2017-07-19T07:25:35.013Z,14.40
2017-07-19T07:28:04.489Z,15.67
2017-07-19T07:30:34.018Z,14.47
2017-07-19T07:33:03.472Z,14.10
2017-07-19T07:35:32.934Z,15.37
2017-07-19T07:38:02.388Z,15.77
2017-07-19T07:40:31.912Z,15.20
2017-07-19T07:43:01.380Z,14.37
2017-07-19T07:45:30.852Z,14.00
2017-07-19T07:48:00.303Z,15.70
2017-07-19T07:50:29.782Z,13.57
2017-07-19T07:52:59.237Z,13.97
2017-07-19T07:55:28.688Z,12.73
2017-07-19T07:57:58.149Z,14.23
2017-07-19T08:00:27.604Z,14.77
2017-07-19T08:02:56.901Z,14.60
2017-07-19T08:05:26.359Z,16.27
2017-07-19T08:07:55.805Z,13.17
2017-07-19T08:10:25.265Z,12.17
2017-07-19T08:12:54.735Z,12.50
2017-07-19T08:15:24.201Z,13.90
2017-07-19T08:17:53.665Z,11.53
2017-07-19T08:20:23.166Z,11.03
2017-07-19T08:22:52.652Z,10.53
2017-07-19T08:25:22.141Z,10.17
2017-07-19T08:27:51.597Z,9.37
2017-07-19T08:30:21.096Z,8.10
2017-07-19T08:32:50.536Z,8.23
2017-07-19T08:35:20.049Z,7.60
2017-07-19T08:37:49.501Z,7.00
2017-07-19T08:40:18.988Z,6.43
2017-07-19T08:42:48.427Z,6.47
2017-07-19T08:45:17.912Z,6.30
2017-07-19T08:47:47.358Z,6.70
2017-07-19T08:50:16.846Z,5.77
2017-07-19T08:52:46.103Z,5.40
2017-07-19T08:55:15.606Z,5.80
2017-07-19T08:57:45.049Z,5.60
2017-07-19T09:00:14.596Z,5.97
2017-07-19T09:02:44.020Z,3.93
2017-07-19T09:05:13.490Z,4.10
2017-07-19T09:07:42.931Z,4.70
2017-07-19T09:10:12.413Z,4.47
2017-07-19T09:12:41.844Z,6.30
2017-07-19T09:15:11.348Z,5.10
2017-07-19T09:17:40.781Z,5.73
2017-07-19T09:20:10.282Z,5.70
2017-07-19T09:22:39.725Z,5.23
2017-07-19T09:25:09.203Z,5.10
2017-07-19T09:27:38.632Z,5.03
2017-07-19T09:30:08.179Z,4.23
2017-07-19T09:32:37.615Z,4.97
2017-07-19T09:35:07.168Z,4.67
2017-07-19T09:37:36.598Z,4.30
2017-07-19T09:40:06.072Z,4.77
2017-07-19T09:42:35.506Z,5.40
2017-07-19T09:45:04.997Z,5.13
2017-07-19T09:47:34.487Z,5.20
2017-07-19T09:50:03.990Z,4.70
2017-07-19T09:52:33.438Z,6.00
2017-07-19T09:55:02.912Z,4.90
2017-07-19T09:57:32.337Z,5.00
2017-07-19T10:00:01.855Z,4.50
2017-07-19T10:02:31.817Z,4.00
2017-07-19T10:05:01.312Z,3.43
2017-07-19T10:07:30.765Z,3.30
2017-07-19T10:10:00.197Z,3.50
2017-07-19T10:12:29.644Z,3.20
2017-07-19T10:14:59.131Z,3.50
2017-07-19T10:17:28.574Z,3.57
2017-07-19T10:19:58.017Z,2.50
2017-07-19T10:22:27.471Z,2.50
2017-07-19T10:24:56.895Z,2.10
2017-07-19T10:27:26.358Z,2.83
2017-07-19T10:29:55.804Z,2.63
2017-07-19T10:32:25.319Z,2.23
2017-07-19T10:34:54.795Z,2.03
2017-07-19T10:37:24.224Z,2.30
2017-07-19T10:39:53.687Z,2.23
2017-07-19T10:42:23.133Z,2.43
2017-07-19T10:44:52.581Z,2.77
2017-07-19T10:47:22.054Z,3.93
2017-07-19T10:49:51.501Z,3.43
2017-07-19T10:52:20.949Z,2.87
2017-07-19T10:54:50.405Z,2.50
2017-07-19T10:57:19.609Z,3.10
2017-07-19T10:59:49.056Z,2.90
2017-07-19T11:02:18.493Z,2.60
2017-07-19T11:04:47.933Z,3.70
2017-07-19T11:07:17.396Z,2.70
2017-07-19T11:09:46.824Z,3.30
2017-07-19T11:12:16.268Z,3.23
2017-07-19T11:14:45.710Z,2.67
2017-07-19T11:17:15.156Z,2.77
2017-07-19T11:19:44.602Z,2.43
2017-07-19T11:22:14.040Z,2.93
2017-07-19T11:24:43.482Z,3.07
2017-07-19T11:27:12.925Z,2.53
2017-07-19T11:29:42.361Z,2.60
2017-07-19T11:32:11.837Z,2.40
2017-07-19T11:34:41.297Z,2.60
2017-07-19T11:37:10.728Z,2.63
2017-07-19T11:39:40.181Z,2.77
2017-07-19T11:42:09.648Z,2.30
2017-07-19T11:44:39.089Z,2.53
2017-07-19T11:47:08.517Z,2.70
2017-07-19T11:49:37.976Z,2.87
2017-07-19T11:52:07.449Z,3.20
2017-07-19T11:54:36.888Z,2.87
2017-07-19T11:57:06.337Z,3.40
2017-07-19T11:59:35.779Z,2.27
2017-07-19T12:02:05.236Z,2.43
2017-07-19T12:04:34.670Z,2.47
2017-07-19T12:07:04.114Z,2.10
2017-07-19T12:09:34.282Z,1.80
2017-07-19T12:12:03.814Z,1.83
2017-07-19T12:14:35.144Z,1.93
2017-07-19T12:17:04.786Z,2.20
2017-07-19T12:19:34.269Z,1.90
2017-07-19T12:22:03.714Z,1.90
2017-07-19T12:24:33.164Z,1.80
2017-07-19T12:27:02.622Z,1.60
2017-07-19T12:29:32.100Z,1.93
2017-07-19T12:32:01.638Z,1.90
2017-07-19T12:34:31.231Z,1.73
2017-07-19T12:37:00.798Z,1.70
2017-07-19T12:39:30.370Z,1.90
2017-07-19T12:41:59.844Z,1.73
2017-07-19T12:44:29.285Z,1.80
2017-07-19T12:47:00.654Z,1.90
2017-07-19T12:49:33.620Z,1.93
2017-07-19T12:52:03.599Z,1.70
2017-07-19T12:54:33.211Z,1.50
2017-07-19T12:57:02.662Z,1.70
2017-07-19T12:59:32.122Z,2.00
2017-07-19T13:02:01.580Z,2.00
2017-07-19T13:04:31.015Z,1.80
2017-07-19T13:07:00.473Z,1.63
2017-07-19T13:09:29.929Z,1.60
2017-07-19T13:11:59.362Z,1.57
2017-07-19T13:14:28.825Z,1.50
2017-07-19T13:16:58.281Z,1.30
2017-07-19T13:19:27.723Z,1.63
2017-07-19T13:21:57.238Z,1.37
2017-07-19T13:24:26.673Z,1.40
2017-07-19T13:26:56.129Z,1.57
2017-07-19T13:29:25.609Z,1.40
2017-07-19T13:31:55.058Z,1.00
2017-07-19T13:34:24.506Z,1.00
2017-07-19T13:36:53.988Z,1.20
2017-07-19T13:39:24.217Z,1.13
2017-07-19T13:41:53.677Z,1.10
2017-07-19T13:44:23.306Z,1.10
2017-07-19T13:46:52.948Z,1.30
2017-07-19T13:49:22.382Z,1.20
2017-07-19T13:51:51.841Z,1.30
2017-07-19T13:54:21.284Z,1.10
2017-07-19T13:56:50.749Z,1.27
2017-07-19T13:59:21.055Z,1.60
2017-07-19T14:01:50.633Z,1.20
2017-07-19T14:04:20.077Z,1.43
2017-07-19T14:06:49.520Z,1.20
2017-07-19T14:09:18.997Z,1.40
2017-07-19T14:11:48.457Z,1.20
2017-07-19T14:14:19.530Z,1.13
2017-07-19T14:16:49.362Z,1.30
2017-07-19T14:19:18.797Z,1.67
2017-07-19T14:21:48.240Z,1.40
2017-07-19T14:24:17.686Z,1.10
2017-07-19T14:26:47.128Z,1.47
2017-07-19T14:29:16.587Z,1.20
2017-07-19T14:31:46.033Z,1.07
2017-07-19T14:34:15.545Z,1.50
2017-07-19T14:36:45.026Z,1.63
2017-07-19T14:39:14.467Z,1.10
2017-07-19T14:41:43.905Z,1.23
2017-07-19T14:44:13.360Z,1.30
2017-07-19T14:46:42.834Z,1.17
2017-07-19T14:49:12.952Z,1.20
2017-07-19T14:51:42.814Z,1.10
2017-07-19T14:54:12.245Z,1.33
2017-07-19T14:56:41.697Z,1.37
2017-07-19T14:59:11.190Z,1.30
2017-07-19T15:01:40.666Z,1.30
2017-07-19T15:04:10.113Z,1.43
2017-07-19T15:06:39.585Z,1.10
2017-07-19T15:09:09.030Z,1.13
2017-07-19T15:11:38.501Z,1.13
2017-07-19T15:14:07.961Z,1.40
2017-07-19T15:16:37.420Z,1.17
2017-07-19T15:19:06.861Z,1.20
2017-07-19T15:21:37.012Z,1.10
2017-07-19T15:24:06.453Z,1.33
2017-07-19T15:26:35.881Z,1.23
2017-07-19T15:29:05.337Z,1.20
2017-07-19T15:31:34.793Z,1.37
2017-07-19T15:34:04.247Z,1.43
2017-07-19T15:36:33.696Z,1.10
2017-07-19T15:39:03.141Z,1.10
2017-07-19T15:41:32.622Z,1.30
2017-07-19T15:44:02.071Z,1.30
2017-07-19T15:46:31.512Z,1.60
2017-07-19T15:49:00.980Z,1.60
2017-07-19T15:51:30.445Z,1.50
2017-07-19T15:53:59.914Z,1.30
2017-07-19T15:56:29.352Z,1.70
2017-07-19T15:58:58.798Z,1.60
2017-07-19T16:01:28.256Z,1.63
2017-07-19T16:03:57.761Z,1.67
2017-07-19T16:06:27.213Z,1.87
2017-07-19T16:08:56.672Z,1.87
2017-07-19T16:11:26.113Z,1.70
2017-07-19T16:13:55.604Z,1.90
2017-07-19T16:16:25.085Z,1.93
2017-07-19T16:18:54.525Z,1.90
2017-07-19T16:21:24.058Z,1.93
2017-07-19T16:23:53.614Z,2.10
2017-07-19T16:26:23.045Z,1.93
2017-07-19T16:28:52.339Z,1.83
2017-07-19T16:31:21.788Z,1.90
2017-07-19T16:33:51.256Z,2.23
2017-07-19T16:36:20.700Z,2.90
2017-07-19T16:38:50.138Z,4.00
2017-07-19T16:41:19.593Z,3.20
2017-07-19T16:43:49.054Z,2.53
2017-07-19T16:46:18.490Z,2.43
2017-07-19T16:48:47.961Z,2.03
2017-07-19T16:51:17.404Z,2.30
2017-07-19T16:53:46.681Z,2.10
2017-07-19T16:56:16.148Z,2.30
2017-07-19T16:58:45.636Z,2.83
2017-07-19T17:01:15.079Z,2.43
2017-07-19T17:03:44.516Z,2.40
2017-07-19T17:06:13.962Z,2.33
2017-07-19T17:08:43.397Z,2.00
2017-07-19T17:11:12.856Z,2.10
2017-07-19T17:13:42.303Z,2.10
2017-07-19T17:16:11.750Z,2.07
2017-07-19T17:18:41.206Z,2.00
2017-07-19T17:21:10.674Z,2.17
2017-07-19T17:23:40.110Z,2.20
2017-07-19T17:26:09.553Z,2.60
2017-07-19T17:28:39.015Z,1.63
2017-07-19T17:31:08.448Z,1.53
2017-07-19T17:33:37.939Z,1.83
2017-07-19T17:36:08.032Z,1.70
2017-07-19T17:38:37.481Z,2.30
2017-07-19T17:41:07.003Z,1.63
2017-07-19T17:43:36.452Z,1.97
2017-07-19T17:46:05.890Z,1.63
2017-07-19T17:48:35.351Z,1.70
2017-07-19T17:51:04.841Z,2.20
2017-07-19T17:53:34.321Z,1.60
2017-07-19T17:56:03.774Z,1.60
2017-07-19T17:58:33.232Z,2.10
2017-07-19T18:01:02.683Z,2.10
2017-07-19T18:03:32.598Z,1.93
2017-07-19T18:06:02.063Z,1.93
2017-07-19T18:08:32.008Z,2.07
2017-07-19T18:11:01.463Z,1.93
2017-07-19T18:13:31.580Z,1.70
2017-07-19T18:16:01.964Z,1.70
2017-07-19T18:18:31.405Z,1.70
2017-07-19T18:21:00.872Z,1.70
2017-07-19T18:23:30.477Z,1.97
2017-07-19T18:25:59.922Z,1.80
2017-07-19T18:28:29.456Z,2.07
2017-07-19T18:30:58.933Z,2.50
2017-07-19T18:33:28.409Z,4.07
2017-07-19T18:35:57.906Z,3.40
2017-07-19T18:38:27.364Z,2.43
2017-07-19T18:40:56.864Z,2.57
2017-07-19T18:43:26.308Z,2.60
2017-07-19T18:45:55.780Z,2.20
2017-07-19T18:48:27.524Z,1.90
2017-07-19T18:50:57.438Z,2.57
2017-07-19T18:53:26.896Z,2.23
2017-07-19T18:55:56.631Z,2.47
2017-07-19T18:58:26.125Z,2.27
2017-07-19T19:00:55.630Z,2.67
2017-07-19T19:03:25.089Z,2.13
2017-07-19T19:05:54.668Z,2.70
2017-07-19T19:08:24.197Z,3.30
2017-07-19T19:10:53.650Z,2.93
2017-07-19T19:13:23.119Z,2.13
2017-07-19T19:15:52.563Z,3.10
2017-07-19T19:18:22.021Z,2.70
2017-07-19T19:20:51.479Z,3.80
2017-07-19T19:23:20.947Z,2.87
2017-07-19T19:28:30.082Z,3.67
2017-07-19T19:30:59.541Z,3.43
2017-07-19T19:33:29.048Z,2.70
2017-07-19T19:35:58.491Z,3.20
2017-07-19T19:38:27.954Z,2.53
2017-07-19T19:40:57.642Z,2.83
2017-07-19T19:43:27.151Z,3.23
2017-07-19T19:45:56.784Z,3.10
2017-07-19T19:48:26.240Z,2.73
2017-07-19T19:50:55.445Z,2.90
2017-07-19T19:53:25.466Z,3.93
2017-07-19T19:55:54.890Z,3.20
2017-07-19T19:58:24.420Z,2.73
2017-07-19T20:00:54.098Z,2.87
2017-07-19T20:03:23.772Z,3.30
2017-07-19T20:05:53.225Z,3.50
2017-07-19T20:08:23.031Z,3.70
2017-07-19T20:10:52.630Z,3.00
2017-07-19T20:13:22.169Z,3.23
2017-07-19T20:15:51.613Z,3.57
2017-07-19T20:18:21.114Z,2.50
2017-07-19T20:20:50.960Z,3.50
2017-07-19T20:23:20.393Z,2.70
2017-07-19T20:25:49.878Z,2.77
2017-07-19T20:28:19.681Z,2.50
2017-07-19T20:30:49.160Z,2.77
2017-07-19T20:33:19.896Z,2.70
2017-07-19T20:35:49.426Z,2.63
2017-07-19T20:38:19.033Z,3.00
2017-07-19T20:40:48.489Z,7.30
2017-07-19T20:43:18.021Z,2.50
2017-07-19T20:45:47.456Z,4.90
2017-07-19T20:48:16.965Z,3.20
2017-07-19T20:50:46.461Z,3.37
2017-07-19T20:53:15.932Z,2.80
2017-07-19T20:55:45.777Z,2.70
2017-07-19T20:58:15.229Z,2.93
2017-07-19T21:00:44.794Z,2.70
2017-07-19T21:03:14.380Z,2.87
2017-07-19T21:05:44.303Z,2.80
2017-07-19T21:08:14.147Z,3.10
2017-07-19T21:10:43.622Z,2.37
2017-07-19T21:13:13.134Z,2.57
2017-07-19T21:15:42.920Z,3.50
2017-07-19T21:18:12.455Z,2.90
2017-07-19T21:20:41.939Z,3.37
2017-07-19T21:23:11.579Z,3.20
2017-07-19T21:25:41.379Z,3.77
2017-07-19T21:28:11.011Z,3.33
2017-07-19T21:30:40.559Z,3.27
2017-07-19T21:33:10.011Z,2.90
2017-07-19T21:35:39.514Z,4.40
2017-07-19T21:38:08.971Z,2.67
2017-07-19T21:40:38.474Z,3.90
2017-07-19T21:43:08.235Z,4.30
2017-07-19T21:45:37.753Z,3.37
2017-07-19T21:48:07.229Z,3.00
2017-07-19T21:50:36.960Z,3.93
2017-07-19T21:53:06.738Z,3.40
2017-07-19T21:55:36.267Z,3.60
2017-07-19T21:58:05.823Z,3.23
2017-07-19T22:00:35.309Z,3.50
2017-07-19T22:03:04.854Z,3.37
2017-07-19T22:05:34.387Z,2.57
2017-07-19T22:08:03.835Z,4.20
2017-07-19T22:10:33.607Z,3.57
2017-07-19T22:13:03.172Z,2.90
2017-07-19T22:15:32.683Z,3.80
2017-07-19T22:18:02.200Z,3.40
2017-07-19T22:20:31.760Z,3.13
2017-07-19T22:23:01.271Z,3.20
2017-07-19T22:25:30.828Z,3.40
2017-07-19T22:28:00.353Z,3.53
2017-07-19T22:30:29.921Z,3.33
2017-07-19T22:32:59.376Z,3.07
2017-07-19T22:35:28.864Z,3.43
2017-07-19T22:37:58.780Z,3.37
2017-07-19T22:40:28.346Z,3.90
2017-07-19T22:42:58.758Z,3.40
2017-07-19T22:45:28.631Z,3.10
2017-07-19T22:47:58.055Z,3.70
2017-07-19T22:50:27.907Z,3.30
2017-07-19T22:52:57.410Z,2.97
2017-07-19T22:55:27.175Z,3.00
2017-07-19T22:57:56.670Z,3.40
2017-07-19T23:00:26.174Z,3.13
2017-07-19T23:02:55.685Z,3.77
2017-07-19T23:05:25.181Z,3.80
2017-07-19T23:07:55.003Z,8.93
2017-07-19T23:10:24.542Z,3.63
2017-07-19T23:12:54.224Z,4.40
2017-07-19T23:15:23.747Z,3.60
2017-07-19T23:17:53.210Z,3.83
2017-07-19T23:20:22.883Z,5.77
2017-07-19T23:22:52.777Z,3.40
2017-07-19T23:25:22.338Z,3.20
2017-07-19T23:27:51.795Z,3.43
2017-07-19T23:30:21.302Z,3.97
2017-07-19T23:32:50.754Z,4.03
2017-07-19T23:35:20.274Z,3.33
2017-07-19T23:37:49.712Z,3.50
2017-07-19T23:40:19.418Z,3.20
2017-07-19T23:42:48.881Z,3.97
2017-07-19T23:45:18.381Z,4.37
2017-07-19T23:47:47.826Z,4.33
2017-07-19T23:50:17.364Z,3.47
2017-07-19T23:52:46.802Z,4.30
2017-07-19T23:55:16.318Z,3.97
2017-07-19T23:57:45.766Z,3.60
